Decoded Metar for UAKD (DZHEZKAZGAN in KAZAKHSTAN) (IATA:DZH) | Meteo·Mobile Aviation Weather
aviador You're here:

UAKD Decoded Metar

DZHEZKAZGAN in KAZAKHSTAN
Report Time2019-07-23 02:00:00
UTC Time2019-07-23 02:35:13
Flight Rules mvfr MVFR
Wind270° at 6 kt
W.Decomp.*RWY 22: 4.4 kt HW 4.1 kt RCW
Visibility6000 m
Phenomena:N/A
Clouds:N/A
Expected CloudBase > 6,000 ft AGL from Temp-Dew spread
CeilingNone
Temp22°C (ISA +9)
Dew Point07°C (38% RH)
AAT19.1°C
QNH1010 hPa
Density Alt2,592 ft
Elevation1,249 ft
Report Wrong Elevation
Raw Report
UAKD 230200Z 27003MPS 6000 NSC 22/07 Q1010 R22/0///65 NOSIG RMK
QFE724/0966=

Extra information for UAKD:More info

Metar Taf Metar & Taf Last 4 Metars F.Rules Stats Wind Profile Meteogram Temp Stats Airport Information Weather charts Add Link Nearby VenuesMetar ALERT Operation Metar Decoded Social comments